createdAt,value
2019-04-21T00:04:43.422Z,36.56
2019-04-21T00:10:04.017Z,36.40
2019-04-21T00:14:54.978Z,36.29
2019-04-21T00:20:05.526Z,36.42
2019-04-21T00:25:16.367Z,36.49
2019-04-21T00:30:32.867Z,36.54
2019-04-21T00:35:15.863Z,36.52
2019-04-21T00:40:46.343Z,36.50
2019-04-21T00:45:37.620Z,36.72
2019-04-21T00:51:05.409Z,36.74
2019-04-21T00:56:05.785Z,36.88
2019-04-21T01:01:05.532Z,36.92
2019-04-21T01:06:13.029Z,36.96
2019-04-21T01:11:17.840Z,36.96
2019-04-21T01:16:31.628Z,37.06
2019-04-21T01:21:14.007Z,37.18
2019-04-21T01:26:24.920Z,37.31
2019-04-21T01:31:36.270Z,37.52
2019-04-21T01:36:41.520Z,37.64
2019-04-21T01:41:50.816Z,37.61
2019-04-21T01:46:51.897Z,37.76
2019-04-21T01:52:08.890Z,37.93
2019-04-21T01:57:17.793Z,38.08
2019-04-21T02:02:26.635Z,38.25
2019-04-21T02:07:26.893Z,38.36
2019-04-21T02:12:42.777Z,38.72
2019-04-21T02:17:42.123Z,38.83
2019-04-21T02:23:07.364Z,39.00
2019-04-21T02:28:01.235Z,38.96
2019-04-21T02:33:08.740Z,39.25
2019-04-21T02:38:17.448Z,39.46
2019-04-21T02:48:32.937Z,39.60
2019-04-21T02:53:39.130Z,39.74
2019-04-21T02:58:59.438Z,39.88
2019-04-21T03:04:24.745Z,39.87
2019-04-21T03:09:24.092Z,40.10
2019-04-21T03:14:40.963Z,40.27
2019-04-21T03:19:46.193Z,40.60
2019-04-21T03:24:53.934Z,40.72
2019-04-21T03:29:48.335Z,40.91
2019-04-21T03:35:25.923Z,41.08
2019-04-21T03:39:59.766Z,41.36
2019-04-21T03:45:03.775Z,41.61
2019-04-21T03:50:12.793Z,41.73
2019-04-21T03:55:51.383Z,41.80
2019-04-21T04:01:05.836Z,41.91
2019-04-21T04:06:49.269Z,42.12
2019-04-21T04:11:39.763Z,42.11
2019-04-21T04:16:37.525Z,42.28
2019-04-21T04:21:51.107Z,42.39
2019-04-21T04:26:57.008Z,42.39
2019-04-21T04:31:47.620Z,42.41
2019-04-21T04:37:26.225Z,42.48
2019-04-21T04:42:21.685Z,42.46
2019-04-21T04:47:37.292Z,41.81
2019-04-21T04:52:32.771Z,42.00
2019-04-21T05:02:40.105Z,42.27
2019-04-21T05:07:51.359Z,42.35
2019-04-21T05:12:51.201Z,42.01
2019-04-21T05:17:50.945Z,41.87
2019-04-21T05:22:53.295Z,41.79
2019-04-21T05:27:52.569Z,41.75
2019-04-21T05:33:27.521Z,41.21
2019-04-21T05:38:34.601Z,40.98
2019-04-21T05:43:38.785Z,40.84
2019-04-21T05:48:55.835Z,40.78
2019-04-21T05:54:10.918Z,40.53
2019-04-21T05:59:10.286Z,39.85
2019-04-21T06:04:26.267Z,39.86
2019-04-21T06:09:22.528Z,39.20
2019-04-21T06:14:30.830Z,39.05
2019-04-21T06:19:36.972Z,39.24
2019-04-21T06:24:45.550Z,39.18
2019-04-21T06:29:46.516Z,38.64
2019-04-21T06:35:07.209Z,38.44
2019-04-21T06:40:12.717Z,38.54
2019-04-21T06:45:06.003Z,38.13
2019-04-21T06:50:09.682Z,37.78
2019-04-21T06:55:15.276Z,37.61
2019-04-21T07:00:18.435Z,37.41
2019-04-21T07:05:30.768Z,37.16
2019-04-21T07:10:31.769Z,36.83
2019-04-21T07:15:37.038Z,36.62
2019-04-21T07:20:45.941Z,36.29
2019-04-21T07:25:54.801Z,36.11
2019-04-21T07:31:00.685Z,36.08
2019-04-21T07:36:01.332Z,36.21
2019-04-21T07:40:59.654Z,35.90
2019-04-21T07:46:09.011Z,35.23
2019-04-21T07:51:47.995Z,35.54
2019-04-21T07:56:33.262Z,35.08
2019-04-21T08:01:55.174Z,34.94
2019-04-21T08:06:58.188Z,34.75
2019-04-21T08:11:57.331Z,34.21
2019-04-21T08:17:12.377Z,34.46
2019-04-21T08:22:20.223Z,34.01
2019-04-21T08:27:32.441Z,34.24
2019-04-21T08:32:36.228Z,34.13
2019-04-21T08:37:34.178Z,34.02
2019-04-21T08:42:38.648Z,33.80
2019-04-21T08:47:45.836Z,33.55
2019-04-21T09:03:17.956Z,32.18
2019-04-21T09:08:20.096Z,32.01
2019-04-21T09:13:24.058Z,32.21
2019-04-21T09:18:26.874Z,31.31
2019-04-21T09:23:38.218Z,31.68
2019-04-21T09:28:39.439Z,31.96
2019-04-21T09:33:37.691Z,31.37
2019-04-21T09:38:41.561Z,31.49
2019-04-21T09:43:48.414Z,30.88
2019-04-21T09:48:55.651Z,31.55
2019-04-21T09:54:01.954Z,31.70
2019-04-21T09:59:11.319Z,30.73
2019-04-21T10:04:07.685Z,29.91
2019-04-21T10:09:14.849Z,29.96
2019-04-21T10:14:17.925Z,29.71
2019-04-21T10:19:23.306Z,28.65
2019-04-21T10:24:28.507Z,28.57
2019-04-21T10:29:34.605Z,28.37
2019-04-21T10:34:39.038Z,28.15
2019-04-21T10:39:43.387Z,27.37
2019-04-21T10:44:47.727Z,24.99
2019-04-21T10:49:52.825Z,24.99
2019-04-21T10:55:20.950Z,24.44
2019-04-21T11:00:04.468Z,22.99
2019-04-21T11:05:09.512Z,21.66
2019-04-21T11:10:14.392Z,20.23
2019-04-21T11:15:19.040Z,18.59
2019-04-21T11:20:24.614Z,18.20
2019-04-21T11:25:30.419Z,18.35
2019-04-21T11:30:35.787Z,17.40
2019-04-21T11:35:41.295Z,17.25
2019-04-21T11:40:47.556Z,17.06
2019-04-21T11:45:52.587Z,16.48
2019-04-21T11:50:57.508Z,17.69
2019-04-21T11:56:02.798Z,15.67
2019-04-21T12:01:07.697Z,15.04
2019-04-21T12:06:13.261Z,15.44
2019-04-21T12:11:17.820Z,15.74
2019-04-21T12:16:23.222Z,15.38
2019-04-21T12:21:32.009Z,15.31
2019-04-21T12:26:33.870Z,15.17
2019-04-21T12:31:57.252Z,15.27
2019-04-21T12:37:01.499Z,14.69
2019-04-21T12:42:06.736Z,13.75
2019-04-21T12:47:12.014Z,14.48
2019-04-21T12:52:17.631Z,15.92
2019-04-21T12:57:23.325Z,16.40
2019-04-21T13:02:27.614Z,15.25
2019-04-21T13:07:33.143Z,14.21
2019-04-21T13:12:37.952Z,13.96
2019-04-21T13:17:44.465Z,14.58
2019-04-21T13:22:48.259Z,14.50
2019-04-21T13:27:52.454Z,14.69
2019-04-21T13:32:58.701Z,14.00
2019-04-21T13:38:02.801Z,13.68
2019-04-21T13:43:08.700Z,14.14
2019-04-21T13:48:14.686Z,14.87
2019-04-21T13:53:18.965Z,14.83
2019-04-21T13:58:24.208Z,13.82
2019-04-21T14:03:29.222Z,13.62
2019-04-21T14:08:33.647Z,14.16
2019-04-21T14:13:38.533Z,13.54
2019-04-21T14:18:42.925Z,13.37
2019-04-21T14:23:49.290Z,13.25
2019-04-21T14:28:53.109Z,13.28
2019-04-21T14:33:58.090Z,14.14
2019-04-21T14:39:04.927Z,13.93
2019-04-21T14:44:09.345Z,14.00
2019-04-21T14:49:19.433Z,13.79
2019-04-21T14:54:42.625Z,13.76
2019-04-21T14:59:46.986Z,13.64
2019-04-21T15:04:51.546Z,13.58
2019-04-21T15:10:04.635Z,14.15
2019-04-21T15:15:02.239Z,13.11
2019-04-21T15:20:11.230Z,13.33
2019-04-21T15:25:14.190Z,14.38
2019-04-21T15:30:18.721Z,14.66
2019-04-21T15:35:23.011Z,16.44
2019-04-21T15:40:37.452Z,17.00
2019-04-21T15:45:33.128Z,17.59
2019-04-21T15:50:37.829Z,18.36
2019-04-21T15:56:02.460Z,19.03
2019-04-21T16:01:22.753Z,19.03
2019-04-21T16:06:27.752Z,19.84
2019-04-21T16:11:33.380Z,19.85
2019-04-21T16:16:39.035Z,20.34
2019-04-21T16:21:46.283Z,20.59
2019-04-21T16:26:50.701Z,20.37
2019-04-21T16:31:55.253Z,20.77
2019-04-21T16:36:59.550Z,20.72
2019-04-21T16:42:03.719Z,21.00
2019-04-21T16:47:07.950Z,21.30
2019-04-21T16:52:25.888Z,21.20
2019-04-21T16:57:43.845Z,21.42
2019-04-21T17:02:48.361Z,21.59
2019-04-21T17:07:52.939Z,21.63
2019-04-21T17:12:57.716Z,21.68
2019-04-21T17:18:20.257Z,21.70
2019-04-21T17:23:09.402Z,21.97
2019-04-21T17:28:14.202Z,22.11
2019-04-21T17:33:23.303Z,22.42
2019-04-21T17:38:25.962Z,22.52
2019-04-21T17:43:31.862Z,22.70
2019-04-21T17:48:36.676Z,22.86
2019-04-21T17:53:55.331Z,23.17
2019-04-21T17:59:23.669Z,23.15
2019-04-21T18:04:27.113Z,23.55
2019-04-21T18:09:37.423Z,23.68
2019-04-21T18:14:16.206Z,23.93
2019-04-21T18:19:27.910Z,23.93
2019-04-21T18:24:41.138Z,24.75
2019-04-21T18:29:34.330Z,24.75
2019-04-21T18:35:01.502Z,25.10
2019-04-21T18:40:09.594Z,25.45
2019-04-21T18:50:47.735Z,26.06
2019-04-21T18:55:52.655Z,26.24
2019-04-21T19:01:03.228Z,26.28
2019-04-21T19:06:08.135Z,26.50
2019-04-21T19:11:25.184Z,26.58
2019-04-21T19:16:38.197Z,26.67
2019-04-21T19:21:31.167Z,26.83
2019-04-21T19:31:49.663Z,27.40
2019-04-21T19:36:36.966Z,27.64
2019-04-21T19:41:56.184Z,28.14
2019-04-21T19:47:04.137Z,28.74
2019-04-21T19:52:01.834Z,29.23
2019-04-21T19:57:00.859Z,29.58
2019-04-21T20:02:06.796Z,29.82
2019-04-21T20:07:25.698Z,30.15
2019-04-21T20:12:39.931Z,30.29
2019-04-21T20:17:36.443Z,30.54
2019-04-21T20:22:32.700Z,30.79
2019-04-21T20:27:46.903Z,30.97
2019-04-21T20:33:14.160Z,31.33
2019-04-21T20:38:04.792Z,31.55
2019-04-21T20:43:11.512Z,31.62
2019-04-21T20:48:10.860Z,31.39
2019-04-21T20:53:24.931Z,31.63
2019-04-21T20:58:28.084Z,31.40
2019-04-21T21:03:37.238Z,31.53
2019-04-21T21:08:40.093Z,31.32
2019-04-21T21:13:50.791Z,31.18
2019-04-21T21:23:58.855Z,30.49
2019-04-21T21:29:00.219Z,30.48
2019-04-21T21:34:16.554Z,30.40
2019-04-21T21:39:18.532Z,30.39
2019-04-21T21:44:09.208Z,30.27
2019-04-21T21:49:27.885Z,30.62
2019-04-21T21:54:16.172Z,30.31
2019-04-21T21:59:24.324Z,30.44
2019-04-21T22:04:30.373Z,30.66
2019-04-21T22:09:32.419Z,30.94
2019-04-21T22:14:41.491Z,30.70
2019-04-21T22:20:05.375Z,30.76
2019-04-21T22:24:58.781Z,30.81
2019-04-21T22:29:59.427Z,30.83
2019-04-21T22:35:05.283Z,30.89
2019-04-21T22:40:16.669Z,31.06
2019-04-21T22:45:15.478Z,31.10
2019-04-21T22:50:30.575Z,31.32
2019-04-21T22:55:35.355Z,31.51
2019-04-21T23:00:46.013Z,31.51
2019-04-21T23:05:50.022Z,31.88
2019-04-21T23:10:59.862Z,32.03
2019-04-21T23:16:01.445Z,32.14
2019-04-21T23:21:16.334Z,32.21
2019-04-21T23:26:32.822Z,32.21
2019-04-21T23:31:38.325Z,32.19
2019-04-21T23:36:28.204Z,32.25
2019-04-21T23:41:38.819Z,32.25
2019-04-21T23:46:37.043Z,32.29
2019-04-21T23:51:47.720Z,32.37
2019-04-21T23:56:47.863Z,32.25
